EKYT/AAL METAR and TAF weather

Enter ICAO airport designator
Station Type Date Time Source
EKYT METAR 2021/08/01 16:20 UTC NOAA

EKYT 011620Z AUTO 27012KT 4300 RA FEW027/// SCT043/// BKN065/// BKN130/// 14/13 Q1001


Station Type Date Time Source
EKYT Decoded METAR 2021/08/01 16:20 UTC NOAA

Aalborg, Denmark (EKYT) 57-06N 009-51E 13M
Aug 01, 2021 - 12:20 PM EDT / 2021.08.01 1620 UTC
Wind: from the W (270 degrees) at 14 MPH (12 KT):0
Visibility: 2 mile(s):0
Sky conditions: mostly cloudy
Weather: rain
Temperature: 57 F (14 C)
Dew Point: 55 F (13 C)
Relative Humidity: 93%
Pressure (altimeter): 29.56 in. Hg (1001 hPa)
ob: EKYT 011620Z AUTO 27012KT 4300 RA FEW027/// SCT043/// BKN065/// BKN130/// 14/13 Q1001
cycle: 16

Station Type Date Time Source
EKYT TAF 2021/08/01 15:30 UTC NOAA

TAF EKYT 011407Z 0115/0215 26015KT 9999 SCT030 SCT060
TEMPO 0115/0116 26018G30KT 6000 SHRA SCT020CB
TEMPO 0116/0201 6000 SHRA SCT012 BKN020CB
BECMG 0121/0124 32010KT

Example: see airport list